createdAt,value
2023-12-08T00:26:32.499Z,1.14
2023-12-08T00:55:00.265Z,1.28
2023-12-08T01:23:38.832Z,1.25
2023-12-08T01:52:17.588Z,1.39
2023-12-08T02:20:44.146Z,1.49
2023-12-08T02:49:21.819Z,1.4
2023-12-08T03:17:47.990Z,1.53
2023-12-08T03:46:19.276Z,1.72
2023-12-08T04:15:05.586Z,2
2023-12-08T04:43:39.321Z,1.92
2023-12-08T05:12:13.480Z,2.03
2023-12-08T05:40:48.075Z,2.16
2023-12-08T06:09:15.510Z,2.36
2023-12-08T06:37:36.999Z,2.42
2023-12-08T07:06:04.791Z,2.57
2023-12-08T07:34:28.202Z,2.76
2023-12-08T08:03:02.543Z,3.01
2023-12-08T08:31:17.985Z,3.35
2023-12-08T08:59:53.351Z,3.7
2023-12-08T09:28:32.021Z,4.23
2023-12-08T09:57:01.382Z,4.64
2023-12-08T10:25:26.106Z,5.3
2023-12-08T10:53:47.485Z,6.1
2023-12-08T11:22:22.364Z,6.34
2023-12-08T11:50:38.916Z,6.62
2023-12-08T12:19:04.842Z,7.07
2023-12-08T12:47:30.890Z,7.33
2023-12-08T13:15:50.484Z,7.5
2023-12-08T13:44:13.693Z,7.61
2023-12-08T14:12:44.085Z,7.68
2023-12-08T14:40:47.419Z,7.65
2023-12-08T15:09:08.926Z,7.55
2023-12-08T15:37:46.189Z,7.4
2023-12-08T16:06:05.689Z,7.31
2023-12-08T16:34:26.726Z,7.23
2023-12-08T17:02:51.605Z,7.18
2023-12-08T17:31:26.403Z,7.23
2023-12-08T18:00:02.921Z,7.2
2023-12-08T18:28:39.893Z,7.16
2023-12-08T18:56:34.180Z,7.04
2023-12-08T19:25:05.250Z,6.92
2023-12-08T19:53:30.488Z,6.64
2023-12-08T20:21:50.789Z,6.54
2023-12-08T20:50:08.519Z,6.6
2023-12-08T21:18:35.349Z,6.61
2023-12-08T21:47:00.836Z,6.6
2023-12-08T22:15:22.816Z,6.45
2023-12-08T22:43:52.162Z,6.06
2023-12-08T23:12:22.849Z,5.65
2023-12-08T23:40:49.596Z,4.96
